Time;durP1;ratioP1;P1;durP2;ratioP2;P2;SDS_P1;SDS_P2;PMS_P1;PMS_P2;Temp;Humidity;BMP_temperature;BMP_pressure;BME280_temperature;BME280_humidity;BME280_pressure;Samples;Min_cycle;Max_cycle;Signal;HPM_P1;HPM_P2
2023/10/14 00:04:44;;;;;;;12.48;2.42;;;7.20;99.90;;;;;;4994296;28;20081;-57
2023/10/14 00:07:17;;;;;;;11.23;1.42;;;7.20;99.90;;;;;;4996866;28;20053;-57
2023/10/14 00:09:49;;;;;;;12.85;1.63;;;7.20;99.90;;;;;;4994829;28;20069;-56
2023/10/14 00:12:20;;;;;;;9.02;2.22;;;7.20;99.90;;;;;;4987723;28;20080;-56
2023/10/14 00:14:53;;;;;;;9.80;1.50;;;7.30;99.90;;;;;;5003283;28;20053;-57
2023/10/14 00:17:21;;;;;;;11.93;1.10;;;7.30;99.90;;;;;;5010025;28;20057;-57
2023/10/14 00:19:50;;;;;;;14.80;1.40;;;7.40;99.90;;;;;;5011997;28;20046;-57
2023/10/14 00:22:18;;;;;;;13.52;2.13;;;7.50;99.90;;;;;;5006659;28;20046;-57
2023/10/14 00:24:48;;;;;;;11.07;1.63;;;7.50;99.90;;;;;;5008782;28;20049;-57
2023/10/14 00:27:17;;;;;;;13.32;1.73;;;7.50;99.90;;;;;;5009990;28;20042;-57
2023/10/14 00:29:44;;;;;;;18.73;2.22;;;7.60;99.90;;;;;;5010041;28;20509;-57
2023/10/14 00:32:15;;;;;;;11.07;1.38;;;7.60;99.90;;;;;;5003385;28;20050;-57
2023/10/14 00:34:42;;;;;;;16.20;2.17;;;7.50;99.90;;;;;;4997092;28;20057;-56
2023/10/14 00:37:10;;;;;;;4.97;0.82;;;7.50;99.90;;;;;;4983942;28;20402;-56
2023/10/14 00:39:38;;;;;;;13.68;2.53;;;7.40;99.90;;;;;;5006269;28;20054;-57
2023/10/14 00:42:08;;;;;;;18.23;2.35;;;7.50;99.90;;;;;;4997198;28;20498;-57
2023/10/14 00:44:38;;;;;;;;;;;7.40;99.90;;;;;;5009383;28;20057;-56
2023/10/14 00:47:14;;;;;;;9.45;1.40;;;7.40;99.90;;;;;;5008659;28;19921;-57
2023/10/14 00:49:49;;;;;;;17.02;2.00;;;7.40;99.90;;;;;;5005405;28;20046;-57
2023/10/14 00:52:19;;;;;;;12.35;1.50;;;7.30;99.90;;;;;;5009656;28;20038;-57
2023/10/14 00:54:58;;;;;;;12.43;1.63;;;7.30;99.90;;;;;;5005721;28;20410;-57
2023/10/14 00:57:38;;;;;;;12.75;1.90;;;7.20;99.90;;;;;;4993193;28;20046;-56
2023/10/14 01:00:10;;;;;;;9.73;1.02;;;7.20;99.90;;;;;;4994505;28;20042;-56
2023/10/14 01:02:38;;;;;;;12.13;1.23;;;7.20;99.90;;;;;;5001057;28;20038;-57
2023/10/14 01:05:14;;;;;;;12.85;1.83;;;7.20;99.90;;;;;;4996921;28;20046;-57
2023/10/14 01:07:44;;;;;;;15.40;1.48;;;7.20;99.90;;;;;;5006579;28;20042;-56
2023/10/14 01:10:15;;;;;;;14.90;1.80;;;7.30;99.90;;;;;;5008662;28;20413;-56
2023/10/14 01:12:48;;;;;;;10.93;1.95;;;7.30;99.90;;;;;;4991396;28;20042;-56
2023/10/14 01:15:22;;;;;;;8.40;1.15;;;7.40;99.90;;;;;;4990376;28;20053;-57
2023/10/14 01:17:55;;;;;;;15.23;2.15;;;7.50;99.90;;;;;;4991979;28;20489;-57
2023/10/14 01:22:54;;;;;;;8.65;1.50;;;7.60;99.90;;;;;;4991731;28;20489;-56
2023/10/14 01:25:26;;;;;;;13.35;1.73;;;7.70;99.90;;;;;;4991345;28;20050;-57
2023/10/14 01:27:59;;;;;;;23.10;4.38;;;7.70;99.90;;;;;;4989745;28;20045;-57
2023/10/14 01:30:32;;;;;;;12.23;1.83;;;7.70;99.90;;;;;;4992448;28;20613;-56
2023/10/14 01:33:15;;;;;;;14.70;2.08;;;7.70;99.90;;;;;;5008757;28;20038;-61
2023/10/14 01:35:45;;;;;;;13.25;2.03;;;7.70;99.90;;;;;;4996163;28;20050;-57
2023/10/14 01:38:16;;;;;;;19.63;1.73;;;7.70;99.90;;;;;;4998911;28;20504;-56
2023/10/14 01:40:49;;;;;;;18.45;1.70;;;7.70;99.90;;;;;;5008729;28;20037;-56
2023/10/14 01:43:17;;;;;;;7.88;1.40;;;7.80;99.90;;;;;;5008326;28;20049;-58
2023/10/14 01:45:50;;;;;;;11.65;2.38;;;7.80;99.90;;;;;;4989567;28;20053;-57
2023/10/14 01:48:21;;;;;;;10.85;1.73;;;7.80;99.90;;;;;;5012282;28;20045;-57
2023/10/14 01:50:54;;;;;;;12.55;1.55;;;7.80;99.90;;;;;;4997628;28;20054;-56
2023/10/14 01:53:26;;;;;;;13.77;1.25;;;7.80;99.90;;;;;;4996846;28;20033;-58
2023/10/14 01:56:01;;;;;;;13.73;1.85;;;7.80;99.90;;;;;;4998615;28;20506;-57
2023/10/14 01:58:33;;;;;;;15.07;2.20;;;7.80;99.90;;;;;;5005560;28;20042;-57
2023/10/14 02:01:14;;;;;;;17.85;2.42;;;7.80;99.90;;;;;;5010803;28;20049;-56
2023/10/14 02:03:50;;;;;;;13.60;1.35;;;7.80;99.90;;;;;;4999707;28;20054;-57
2023/10/14 02:06:21;;;;;;;14.27;1.58;;;7.80;99.90;;;;;;5011534;28;20045;-57
2023/10/14 02:08:52;;;;;;;;;;;7.80;99.90;;;;;;4997788;28;20042;-56
2023/10/14 02:11:26;;;;;;;13.60;1.25;;;7.70;99.90;;;;;;4999903;28;20537;-56
2023/10/14 02:13:54;;;;;;;16.25;1.40;;;7.70;99.90;;;;;;4991451;28;20049;-57
2023/10/14 02:16:25;;;;;;;13.15;1.48;;;7.80;99.90;;;;;;5007199;28;20062;-58
2023/10/14 02:19:17;;;;;;;7.50;1.10;;;7.80;99.90;;;;;;5007567;28;20038;-57
2023/10/14 02:21:57;;;;;;;14.57;1.83;;;7.80;99.90;;;;;;4995318;28;20691;-57
2023/10/14 02:24:27;;;;;;;17.60;2.15;;;7.80;99.90;;;;;;4992154;28;20402;-57
2023/10/14 02:27:10;;;;;;;;;;;7.90;99.90;;;;;;4995474;28;20414;-58
2023/10/14 02:29:45;;;;;;;11.60;2.45;;;7.90;99.90;;;;;;5009926;28;19928;-57
2023/10/14 02:32:13;;;;;;;19.17;2.08;;;7.90;99.90;;;;;;5007464;28;20050;-57
2023/10/14 02:34:45;;;;;;;9.23;1.45;;;7.90;99.90;;;;;;4998109;28;20049;-57
2023/10/14 02:37:14;;;;;;;10.13;1.50;;;8.00;99.90;;;;;;4995181;28;20062;-56
2023/10/14 02:39:43;;;;;;;12.18;1.98;;;8.00;99.90;;;;;;4992273;28;20094;-57
2023/10/14 02:42:14;;;;;;;16.25;1.80;;;8.00;99.90;;;;;;5009969;28;20064;-57
2023/10/14 02:44:46;;;;;;;17.85;1.95;;;8.00;99.90;;;;;;5008951;28;20034;-57
2023/10/14 02:47:14;;;;;;;15.48;2.42;;;8.00;99.90;;;;;;5012522;28;20046;-57
2023/10/14 02:49:42;;;;;;;19.65;1.85;;;8.00;99.90;;;;;;5011152;28;20056;-58
2023/10/14 02:52:11;;;;;;;18.08;1.95;;;8.00;99.90;;;;;;5010712;28;20060;-57
2023/10/14 02:54:44;;;;;;;31.27;3.65;;;8.00;99.90;;;;;;5010783;28;20046;-56
2023/10/14 02:57:14;;;;;;;7.38;1.35;;;8.00;99.90;;;;;;5012501;28;20049;-57
2023/10/14 03:02:48;;;;;;;12.32;1.45;;;8.00;99.90;;;;;;5012319;28;20042;-57
2023/10/14 03:06:06;;;;;;;15.48;2.28;;;8.00;99.90;;;;;;5008964;28;20046;-57
2023/10/14 03:08:10;;;;;;;19.13;2.40;;;7.90;99.90;;;;;;4991078;28;20058;-57
2023/10/14 03:10:42;;;;;;;17.67;2.53;;;7.90;99.90;;;;;;4994133;28;20046;-56
2023/10/14 03:13:14;;;;;;;20.90;2.60;;;7.80;99.90;;;;;;5010995;28;20611;-57
2023/10/14 03:15:44;;;;;;;15.35;2.28;;;7.70;99.90;;;;;;5012014;28;20479;-57
2023/10/14 03:18:16;;;;;;;15.15;3.13;;;7.70;99.90;;;;;;5011953;28;20045;-57
2023/10/14 03:21:00;;;;;;;15.75;2.28;;;7.60;99.90;;;;;;5011966;28;20046;-58
2023/10/14 03:23:28;;;;;;;15.05;1.60;;;7.50;99.90;;;;;;5004554;28;20047;-57
2023/10/14 03:26:12;;;;;;;12.50;1.52;;;7.50;99.90;;;;;;4992091;28;20058;-56
2023/10/14 03:28:44;;;;;;;13.93;2.15;;;7.40;99.90;;;;;;4992377;28;20053;-57
2023/10/14 03:31:16;;;;;;;24.17;2.40;;;7.40;99.90;;;;;;4997976;28;20050;-57
2023/10/14 03:33:45;;;;;;;18.02;1.85;;;7.40;99.90;;;;;;5011750;28;20042;-57
2023/10/14 03:36:17;;;;;;;19.15;1.90;;;7.40;99.90;;;;;;5011711;28;20073;-57
2023/10/14 03:41:37;;;;;;;15.73;1.90;;;7.30;99.90;;;;;;4993597;28;20508;-56
2023/10/14 03:44:10;;;;;;;20.40;2.08;;;7.40;99.90;;;;;;5009876;28;20397;-57
2023/10/14 03:46:47;;;;;;;15.45;1.92;;;7.40;99.90;;;;;;4996422;28;20379;-57
2023/10/14 03:49:25;;;;;;;12.80;1.42;;;7.50;99.90;;;;;;5008650;28;20053;-56
2023/10/14 03:51:57;;;;;;;10.00;1.52;;;7.40;99.90;;;;;;5000701;28;20410;-57
2023/10/14 03:54:30;;;;;;;19.88;2.67;;;7.50;99.90;;;;;;4993118;28;20038;-57
2023/10/14 03:57:01;;;;;;;10.35;1.10;;;7.50;99.90;;;;;;5008890;28;20433;-56
2023/10/14 03:59:33;;;;;;;16.10;1.80;;;7.50;99.90;;;;;;5009605;28;20046;-57
2023/10/14 04:02:05;;;;;;;12.00;1.45;;;7.50;99.90;;;;;;5005533;28;20050;-57
2023/10/14 04:04:34;;;;;;;11.27;1.50;;;7.50;99.90;;;;;;5002927;28;20038;-56
2023/10/14 04:09:39;;;;;;;11.75;1.95;;;7.40;99.90;;;;;;5007907;28;20042;-57
2023/10/14 04:12:09;;;;;;;13.80;1.58;;;7.40;99.90;;;;;;4998578;28;20053;-57
2023/10/14 04:14:37;;;;;;;13.00;1.98;;;7.40;99.90;;;;;;5003484;28;20045;-59
2023/10/14 04:17:10;;;;;;;16.52;2.17;;;7.40;99.90;;;;;;4997950;28;20612;-57
2023/10/14 04:19:53;;;;;;;13.23;2.00;;;7.40;99.90;;;;;;4998910;28;20042;-59
2023/10/14 04:25:42;;;;;;;12.52;2.13;;;7.40;99.90;;;;;;4991719;28;20049;-58
2023/10/14 04:27:45;;;;;;;12.77;1.20;;;7.40;99.90;;;;;;4986261;28;20043;-57
2023/10/14 04:30:32;;;;;;;20.60;2.30;;;7.40;99.90;;;;;;4993619;28;20498;-58
2023/10/14 04:35:33;;;;;;;15.15;2.78;;;7.40;99.90;;;;;;5009759;28;20046;-57
2023/10/14 04:38:16;;;;;;;14.75;1.90;;;7.40;99.90;;;;;;5009204;28;20577;-57
2023/10/14 04:40:53;;;;;;;14.98;1.65;;;7.40;99.90;;;;;;5005286;28;20403;-57
2023/10/14 04:45:57;;;;;;;14.48;1.02;;;7.40;99.90;;;;;;5000146;28;23414;-56
2023/10/14 04:51:08;;;;;;;10.30;1.42;;;7.40;99.90;;;;;;4994864;28;20045;-57
2023/10/14 04:53:36;;;;;;;8.93;0.90;;;7.40;99.90;;;;;;4988206;28;20047;-56
2023/10/14 04:56:08;;;;;;;7.18;1.20;;;7.30;99.90;;;;;;4997654;28;20493;-56
2023/10/14 04:58:40;;;;;;;13.07;1.77;;;7.30;99.90;;;;;;5006381;28;20689;-56
2023/10/14 05:01:09;;;;;;;7.43;0.95;;;7.30;99.90;;;;;;4998788;28;20073;-56
2023/10/14 05:03:37;;;;;;;7.18;1.08;;;7.30;99.90;;;;;;5000097;28;20048;-56
2023/10/14 05:08:45;;;;;;;7.18;1.23;;;7.40;99.90;;;;;;5003403;28;20042;-57
2023/10/14 05:11:15;;;;;;;7.03;0.85;;;7.30;99.90;;;;;;4985818;28;20050;-56
2023/10/14 05:13:44;;;;;;;12.60;1.33;;;7.30;99.90;;;;;;5007136;28;20504;-56
2023/10/14 05:16:26;;;;;;;9.85;1.35;;;7.30;99.90;;;;;;5008018;28;20053;-59
2023/10/14 05:19:06;;;;;;;10.27;1.48;;;7.30;99.90;;;;;;4993609;28;20042;-59
2023/10/14 05:21:42;;;;;;;3.05;0.70;;;7.20;99.90;;;;;;5000093;28;20046;-58
2023/10/14 05:24:12;;;;;;;7.75;1.80;;;7.20;99.90;;;;;;4992429;28;20055;-58
2023/10/14 05:26:45;;;;;;;8.25;1.15;;;7.20;99.90;;;;;;4991189;28;20057;-59
2023/10/14 05:29:17;;;;;;;8.77;1.10;;;7.20;99.90;;;;;;5007847;28;20042;-56
2023/10/14 05:31:49;;;;;;;8.93;0.95;;;7.30;99.90;;;;;;5007012;28;20552;-56
2023/10/14 05:34:24;;;;;;;6.10;1.00;;;7.30;99.90;;;;;;4993085;28;20264;-56
2023/10/14 05:36:55;;;;;;;7.78;0.80;;;7.30;99.90;;;;;;5002062;28;20043;-56
2023/10/14 05:39:37;;;;;;;11.00;0.80;;;7.20;99.90;;;;;;4993727;28;20046;-59
2023/10/14 05:42:17;;;;;;;10.20;1.63;;;7.10;99.90;;;;;;5003868;28;20045;-59
2023/10/14 05:44:49;;;;;;;9.18;1.17;;;7.10;99.90;;;;;;5007211;28;20050;-59
2023/10/14 05:47:19;;;;;;;5.93;1.00;;;7.00;99.90;;;;;;5000633;28;20037;-55
2023/10/14 05:49:47;;;;;;;11.55;0.88;;;7.00;99.90;;;;;;5002203;28;20054;-58
2023/10/14 05:52:15;;;;;;;3.30;0.70;;;6.90;99.90;;;;;;4996135;28;20042;-56
2023/10/14 05:54:43;;;;;;;9.45;1.38;;;6.90;99.90;;;;;;4990708;28;20057;-57
2023/10/14 05:57:11;;;;;;;7.70;1.17;;;6.90;99.90;;;;;;4987927;28;20046;-57
2023/10/14 05:59:39;;;;;;;6.20;0.95;;;7.00;99.90;;;;;;4995530;28;20049;-57
2023/10/14 06:02:08;;;;;;;8.45;0.85;;;7.00;99.90;;;;;;4991318;28;20050;-57
2023/10/14 06:04:39;;;;;;;14.63;0.93;;;7.00;99.90;;;;;;5007495;28;20069;-56
2023/10/14 06:07:12;;;;;;;7.13;1.70;;;7.10;99.90;;;;;;4993237;28;20050;-58
2023/10/14 06:09:45;;;;;;;1.02;0.90;;;7.10;99.90;;;;;;5005256;28;20046;-58
2023/10/14 06:12:16;;;;;;;4.05;1.05;;;7.10;99.90;;;;;;4995966;28;20046;-57
2023/10/14 06:14:46;;;;;;;3.15;0.55;;;7.10;99.90;;;;;;5002082;28;20053;-57
2023/10/14 06:17:15;;;;;;;7.22;0.80;;;7.10;99.90;;;;;;4995939;28;20058;-57
2023/10/14 06:19:43;;;;;;;3.83;0.50;;;7.10;99.90;;;;;;5004795;28;20046;-57
2023/10/14 06:22:14;;;;;;;5.45;0.60;;;7.10;99.90;;;;;;5007249;28;20057;-57
2023/10/14 06:24:42;;;;;;;3.65;0.60;;;7.10;99.90;;;;;;4992087;28;20050;-58
2023/10/14 06:27:20;;;;;;;8.25;0.70;;;7.10;99.90;;;;;;5001533;28;20065;-58
2023/10/14 06:29:50;;;;;;;3.33;1.02;;;7.10;99.90;;;;;;5004604;28;20057;-58
2023/10/14 06:32:18;;;;;;;6.90;1.00;;;7.00;99.90;;;;;;4992145;28;20061;-56
2023/10/14 06:34:57;;;;;;;5.85;1.02;;;7.00;99.90;;;;;;5004748;28;20050;-57
2023/10/14 06:37:27;;;;;;;5.40;0.93;;;7.00;99.90;;;;;;4991914;28;20051;-57
2023/10/14 06:39:56;;;;;;;9.45;1.10;;;7.00;99.90;;;;;;4995463;28;20041;-58
2023/10/14 06:42:26;;;;;;;8.00;0.98;;;7.00;99.90;;;;;;4990827;28;20052;-58
2023/10/14 06:44:55;;;;;;;;;;;7.10;99.90;;;;;;5003195;28;20068;-57
2023/10/14 06:47:23;;;;;;;8.13;1.50;;;7.00;99.90;;;;;;4992107;28;19929;-58
2023/10/14 06:49:51;;;;;;;5.78;0.60;;;7.00;99.90;;;;;;5002470;28;20054;-58
2023/10/14 06:52:19;;;;;;;5.75;1.48;;;7.00;99.90;;;;;;4992979;28;20061;-57
2023/10/14 06:54:47;;;;;;;7.07;1.05;;;7.00;99.90;;;;;;5002041;28;20053;-58
2023/10/14 06:57:16;;;;;;;9.50;0.98;;;7.00;99.90;;;;;;5008310;28;20045;-58
2023/10/14 06:59:45;;;;;;;6.63;1.55;;;7.00;99.90;;;;;;5004181;28;20037;-58
2023/10/14 07:02:13;;;;;;;6.22;0.90;;;7.10;99.90;;;;;;5004342;28;20058;-58
2023/10/14 07:04:41;;;;;;;9.70;1.17;;;7.10;99.90;;;;;;5000912;28;20041;-57
2023/10/14 07:07:14;;;;;;;15.30;1.15;;;7.10;99.90;;;;;;5004638;28;20041;-58
2023/10/14 07:09:44;;;;;;;4.80;1.05;;;7.10;99.90;;;;;;5000488;28;20050;-57
2023/10/14 07:12:15;;;;;;;4.53;1.20;;;7.10;99.90;;;;;;5008358;28;20046;-58
2023/10/14 07:14:46;;;;;;;7.40;1.35;;;7.20;99.90;;;;;;4988167;28;20061;-57
2023/10/14 07:17:18;;;;;;;5.70;0.90;;;7.20;99.90;;;;;;5005809;28;20053;-57
2023/10/14 07:19:46;;;;;;;5.70;1.08;;;7.30;99.90;;;;;;5008375;28;20038;-57
2023/10/14 07:22:20;;;;;;;7.22;1.05;;;7.30;99.90;;;;;;4995437;28;20515;-57
2023/10/14 07:24:50;;;;;;;9.55;1.23;;;7.30;99.90;;;;;;4989791;28;20065;-57
2023/10/14 07:27:20;;;;;;;13.90;1.35;;;7.30;99.90;;;;;;4990456;28;20038;-57
2023/10/14 07:29:48;;;;;;;9.65;1.35;;;7.40;99.90;;;;;;5002952;28;20946;-60
2023/10/14 07:32:19;;;;;;;7.70;1.92;;;7.40;99.90;;;;;;5006209;28;20498;-58
2023/10/14 07:34:52;;;;;;;7.43;1.10;;;7.40;99.90;;;;;;4969711;28;20050;-58
2023/10/14 07:37:20;;;;;;;11.93;1.02;;;7.40;99.90;;;;;;5006001;28;20056;-58
2023/10/14 07:39:52;;;;;;;9.80;1.67;;;7.30;99.90;;;;;;4998681;28;20062;-57
2023/10/14 07:42:21;;;;;;;6.10;1.10;;;7.30;99.90;;;;;;4992347;28;20363;-57
2023/10/14 07:44:51;;;;;;;7.35;1.00;;;7.30;99.90;;;;;;4991772;28;20045;-57
2023/10/14 07:47:21;;;;;;;7.07;1.60;;;7.30;99.90;;;;;;5002456;28;20061;-57
2023/10/14 07:49:50;;;;;;;5.80;2.45;;;7.30;99.90;;;;;;4998358;28;20046;-57
2023/10/14 07:52:20;;;;;;;9.55;1.42;;;7.30;99.90;;;;;;5004331;28;20532;-57
2023/10/14 07:54:51;;;;;;;4.85;0.75;;;7.30;99.90;;;;;;5001205;28;20038;-57
2023/10/14 07:57:19;;;;;;;9.23;1.45;;;7.30;99.90;;;;;;4993505;28;20046;-57
2023/10/14 07:59:50;;;;;;;7.30;1.52;;;7.30;99.90;;;;;;5007036;28;20041;-57
2023/10/14 08:02:19;;;;;;;8.18;1.50;;;7.40;99.90;;;;;;4991796;28;20046;-56
2023/10/14 08:04:47;;;;;;;9.40;1.13;;;7.40;99.90;;;;;;5005637;28;20030;-57
2023/10/14 08:07:14;;;;;;;6.82;1.00;;;7.40;99.90;;;;;;4990747;28;20050;-57
2023/10/14 08:09:43;;;;;;;6.63;2.42;;;7.40;99.90;;;;;;5003378;28;20060;-57
2023/10/14 08:12:14;;;;;;;6.15;1.17;;;7.40;99.90;;;;;;5006100;28;20061;-57
2023/10/14 08:14:44;;;;;;;6.05;0.60;;;7.30;99.90;;;;;;5001879;28;20371;-56
2023/10/14 08:17:12;;;;;;;5.35;1.33;;;7.40;99.90;;;;;;4991614;28;20600;-56
2023/10/14 08:19:41;;;;;;;4.68;1.00;;;7.40;99.90;;;;;;5006492;28;20058;-58
2023/10/14 08:22:14;;;;;;;5.10;1.50;;;7.40;99.90;;;;;;4995081;28;20050;-57
2023/10/14 08:24:42;;;;;;;3.40;0.77;;;7.30;99.90;;;;;;5003017;28;20750;-58
2023/10/14 08:27:12;;;;;;;9.77;0.90;;;7.40;99.90;;;;;;4991633;28;20227;-57
2023/10/14 08:29:41;;;;;;;;;;;7.40;99.90;;;;;;5003843;28;20056;-57
2023/10/14 08:32:09;;;;;;;2.90;1.10;;;7.40;99.90;;;;;;5004081;28;19922;-58
2023/10/14 08:34:38;;;;;;;6.60;1.63;;;7.50;99.90;;;;;;4992850;28;20049;-57
2023/10/14 08:37:07;;;;;;;3.85;0.75;;;7.50;99.90;;;;;;5006988;28;20054;-57
2023/10/14 08:39:35;;;;;;;7.25;1.40;;;7.60;99.90;;;;;;5010161;28;20517;-58
2023/10/14 08:42:05;;;;;;;8.80;1.08;;;7.60;99.90;;;;;;5011254;28;20065;-57
2023/10/14 08:44:36;;;;;;;6.00;1.73;;;7.60;99.90;;;;;;5003776;28;20076;-56
2023/10/14 08:47:13;;;;;;;6.80;1.20;;;7.70;99.90;;;;;;4988538;28;20498;-56
2023/10/14 08:49:42;;;;;;;5.63;1.38;;;7.80;99.90;;;;;;5002394;28;20045;-57
2023/10/14 08:52:16;;;;;;;6.38;1.33;;;7.80;99.90;;;;;;5004904;28;20050;-56
2023/10/14 08:54:46;;;;;;;6.43;0.70;;;7.90;99.90;;;;;;4990732;28;20046;-57
2023/10/14 08:57:15;;;;;;;9.73;1.05;;;7.90;99.90;;;;;;5000441;28;20058;-57
2023/10/14 08:59:44;;;;;;;9.38;1.38;;;8.00;99.90;;;;;;4992967;28;20406;-58
2023/10/14 09:02:13;;;;;;;6.87;0.93;;;8.00;99.90;;;;;;5002089;28;20046;-56
2023/10/14 09:04:41;;;;;;;9.47;1.40;;;8.10;99.90;;;;;;5006380;28;20054;-57
2023/10/14 09:07:16;;;;;;;9.63;1.00;;;8.20;99.90;;;;;;5000634;28;20314;-57
2023/10/14 09:09:44;;;;;;;7.55;1.25;;;8.20;99.90;;;;;;4997414;28;20049;-57
2023/10/14 09:12:13;;;;;;;6.82;1.15;;;8.20;99.90;;;;;;5006529;28;20057;-57
2023/10/14 09:14:42;;;;;;;9.02;1.00;;;8.30;99.90;;;;;;4996454;28;20485;-56
2023/10/14 09:17:10;;;;;;;9.40;1.38;;;8.40;99.90;;;;;;5001780;28;20046;-57
2023/10/14 09:19:50;;;;;;;7.53;1.30;;;8.40;99.90;;;;;;4998127;28;20042;-57
2023/10/14 09:22:27;;;;;;;7.78;2.05;;;8.40;99.90;;;;;;5001832;28;20502;-57
2023/10/14 09:24:58;;;;;;;8.10;1.58;;;8.40;99.90;;;;;;5007778;28;20046;-57
2023/10/14 09:27:30;;;;;;;5.15;1.30;;;8.50;99.90;;;;;;4992402;28;20050;-57
2023/10/14 09:29:58;;;;;;;7.32;1.25;;;8.60;99.90;;;;;;4994342;28;20050;-57
2023/10/14 09:32:27;;;;;;;7.40;0.95;;;8.60;99.90;;;;;;5004619;28;20052;-57
2023/10/14 09:34:58;;;;;;;4.35;0.73;;;8.70;99.90;;;;;;5009232;28;20061;-57
2023/10/14 09:37:26;;;;;;;6.50;1.20;;;8.80;99.90;;;;;;4992016;28;20057;-57
2023/10/14 09:40:05;;;;;;;7.45;1.08;;;8.80;99.90;;;;;;5006422;28;20042;-57
2023/10/14 09:42:35;;;;;;;6.77;1.00;;;8.90;99.90;;;;;;5008500;28;20050;-56
2023/10/14 09:45:10;;;;;;;10.30;1.75;;;8.90;99.90;;;;;;5010342;28;20315;-57
2023/10/14 09:47:45;;;;;;;6.82;1.58;;;9.00;99.90;;;;;;5007664;28;20517;-57
2023/10/14 09:50:15;;;;;;;13.77;2.13;;;9.10;99.90;;;;;;5003943;28;20042;-57
2023/10/14 09:52:45;;;;;;;5.15;0.82;;;9.20;99.90;;;;;;4997633;28;20042;-57
2023/10/14 09:55:15;;;;;;;5.88;0.73;;;9.20;99.90;;;;;;4996939;28;20042;-57
2023/10/14 09:57:45;;;;;;;4.97;1.00;;;9.30;99.90;;;;;;5008212;28;20053;-57
2023/10/14 10:00:17;;;;;;;4.28;0.90;;;9.30;99.90;;;;;;5008657;28;20076;-56
2023/10/14 10:02:50;;;;;;;6.65;0.68;;;9.40;99.90;;;;;;4992606;28;20046;-56
2023/10/14 10:05:28;;;;;;;8.60;1.15;;;9.50;99.90;;;;;;4999398;28;20058;-57
2023/10/14 10:08:29;;;;;;;9.77;0.90;;;9.50;99.90;;;;;;4989778;28;20061;-56
2023/10/14 10:10:58;;;;;;;7.05;1.10;;;9.50;99.90;;;;;;4989092;28;20062;-56
2023/10/14 10:13:28;;;;;;;7.20;1.20;;;9.60;99.90;;;;;;5000954;28;20049;-56
2023/10/14 10:16:03;;;;;;;10.88;0.95;;;9.70;99.90;;;;;;5006379;28;20050;-56
2023/10/14 10:18:51;;;;;;;17.63;3.45;;;9.80;99.90;;;;;;4991584;28;20398;-56
2023/10/14 10:21:20;;;;;;;5.45;1.30;;;9.90;99.90;;;;;;4988948;28;20483;-56
2023/10/14 10:23:56;;;;;;;16.65;1.63;;;10.00;99.90;;;;;;4976664;28;20057;-57
2023/10/14 10:26:24;;;;;;;8.35;1.38;;;10.10;99.90;;;;;;4989861;28;20038;-56
2023/10/14 10:28:52;;;;;;;6.60;1.35;;;10.20;99.90;;;;;;4996116;28;20046;-57
2023/10/14 10:31:24;;;;;;;9.43;1.00;;;10.30;99.90;;;;;;4989841;28;20053;-57
2023/10/14 10:33:59;;;;;;;11.75;1.20;;;10.40;99.90;;;;;;5000642;28;20049;-57
2023/10/14 10:36:33;;;;;;;10.93;1.23;;;10.50;99.90;;;;;;4991026;28;20061;-57
2023/10/14 10:39:15;;;;;;;14.32;1.27;;;10.60;99.90;;;;;;4988353;28;20050;-57
2023/10/14 10:41:48;;;;;;;9.30;1.75;;;10.50;99.90;;;;;;4992083;28;20038;-57
2023/10/14 10:44:18;;;;;;;11.90;1.13;;;10.40;99.90;;;;;;5000151;28;20045;-57
2023/10/14 10:46:49;;;;;;;7.18;1.25;;;10.40;99.90;;;;;;4999347;28;20042;-57
2023/10/14 10:49:49;;;;;;;16.65;2.72;;;10.50;99.90;;;;;;5005076;28;20722;-57
2023/10/14 10:52:17;;;;;;;11.13;0.82;;;10.50;99.90;;;;;;4987358;28;20057;-56
2023/10/14 10:54:46;;;;;;;10.35;1.27;;;10.60;99.90;;;;;;4998298;28;20042;-56
2023/10/14 10:57:15;;;;;;;13.33;1.30;;;10.70;99.90;;;;;;4997541;28;20050;-56
2023/10/14 10:59:43;;;;;;;4.78;1.13;;;10.80;99.90;;;;;;4996948;28;20046;-58
2023/10/14 11:02:13;;;;;;;9.95;0.80;;;10.90;99.90;;;;;;4992146;28;20061;-57
2023/10/14 11:04:43;;;;;;;7.68;0.82;;;11.10;99.90;;;;;;4999689;28;20100;-57
2023/10/14 11:07:17;;;;;;;3.78;0.52;;;11.30;99.90;;;;;;5005923;28;20539;-57
2023/10/14 11:09:49;;;;;;;6.70;1.00;;;11.40;99.90;;;;;;4986359;28;20053;-57
2023/10/14 11:12:18;;;;;;;7.05;1.63;;;11.30;99.90;;;;;;4999612;28;20061;-57
2023/10/14 11:14:48;;;;;;;10.25;0.85;;;11.20;99.90;;;;;;4988915;28;20050;-57
2023/10/14 11:17:16;;;;;;;6.10;0.70;;;11.20;99.90;;;;;;5002091;28;20409;-57
2023/10/14 11:19:46;;;;;;;8.77;1.10;;;11.20;99.90;;;;;;5007363;28;20417;-58
2023/10/14 11:22:14;;;;;;;7.32;0.68;;;11.40;99.90;;;;;;5000081;28;20061;-58
2023/10/14 11:24:42;;;;;;;7.68;1.30;;;11.50;99.90;;;;;;5002517;28;20052;-58
2023/10/14 11:27:10;;;;;;;4.15;0.90;;;11.80;99.90;;;;;;4988648;28;20047;-58
2023/10/14 11:29:40;;;;;;;6.95;1.10;;;12.00;99.90;;;;;;4998953;28;20046;-58
2023/10/14 11:32:09;;;;;;;7.05;1.08;;;12.30;99.90;;;;;;4998444;28;20058;-58
2023/10/14 11:34:37;;;;;;;4.13;1.05;;;12.50;99.90;;;;;;5005763;28;20048;-59
2023/10/14 11:37:10;;;;;;;4.65;0.85;;;12.40;99.90;;;;;;5008541;28;20053;-57
2023/10/14 11:39:43;;;;;;;4.50;0.85;;;12.20;99.90;;;;;;4993083;28;20046;-58
2023/10/14 11:42:13;;;;;;;7.18;0.85;;;11.80;99.90;;;;;;5006331;28;20042;-57
2023/10/14 11:44:41;;;;;;;4.68;0.75;;;11.50;99.90;;;;;;5006240;28;20065;-57
2023/10/14 11:47:16;;;;;;;4.00;0.52;;;11.20;99.90;;;;;;5007827;28;20239;-57
2023/10/14 11:49:46;;;;;;;6.20;0.80;;;11.00;99.90;;;;;;5006387;28;20053;-58
2023/10/14 11:52:14;;;;;;;2.70;0.40;;;11.00;99.90;;;;;;5007657;28;20060;-58
2023/10/14 11:54:42;;;;;;;6.22;1.20;;;11.20;99.90;;;;;;5001726;28;20050;-59
2023/10/14 11:57:11;;;;;;;3.92;0.73;;;11.90;99.90;;;;;;4993330;28;20387;-58
2023/10/14 11:59:39;;;;;;;9.25;0.90;;;12.40;99.90;;;;;;5006291;28;20038;-58
2023/10/14 12:02:07;;;;;;;7.40;0.70;;;12.80;99.90;;;;;;5005932;28;20589;-58
2023/10/14 12:04:35;;;;;;;4.43;0.85;;;13.30;99.90;;;;;;5006409;28;20046;-58
2023/10/14 12:07:04;;;;;;;5.65;0.77;;;13.60;99.90;;;;;;5005361;28;20053;-58
2023/10/14 12:09:32;;;;;;;4.85;0.50;;;13.70;99.90;;;;;;5005026;28;20048;-58
2023/10/14 12:12:01;;;;;;;6.38;1.48;;;13.90;99.90;;;;;;5007501;28;20064;-58
2023/10/14 12:14:29;;;;;;;7.60;1.63;;;14.10;99.90;;;;;;5009053;28;20054;-58
2023/10/14 12:17:00;;;;;;;3.63;0.88;;;14.30;99.90;;;;;;5008642;28;20057;-59
2023/10/14 12:19:28;;;;;;;3.75;0.60;;;14.40;99.90;;;;;;5010810;28;20041;-58
2023/10/14 12:21:56;;;;;;;5.00;0.80;;;14.70;99.90;;;;;;5012181;28;20042;-58
2023/10/14 12:24:25;;;;;;;6.72;0.90;;;15.00;99.90;;;;;;5012105;28;20053;-58
2023/10/14 12:26:52;;;;;;;5.32;0.70;;;15.30;99.90;;;;;;4993024;28;20050;-58
2023/10/14 12:29:20;;;;;;;4.93;0.80;;;15.60;99.90;;;;;;5003740;28;20060;-59
2023/10/14 12:31:48;;;;;;;6.18;1.23;;;15.80;99.90;;;;;;4990843;28;20406;-59
2023/10/14 12:34:25;;;;;;;6.05;1.02;;;15.90;99.90;;;;;;5009894;28;20049;-60
2023/10/14 12:36:53;;;;;;;2.38;0.95;;;16.10;99.90;;;;;;4994465;28;20394;-59
2023/10/14 12:39:42;;;;;;;3.55;0.90;;;16.10;99.90;;;;;;5010261;28;20057;-61
2023/10/14 12:42:08;;;;;;;5.18;1.08;;;15.90;99.90;;;;;;4992466;28;20046;-61
2023/10/14 12:44:36;;;;;;;8.70;1.15;;;15.10;99.90;;;;;;4990980;28;20046;-61
2023/10/14 12:47:14;;;;;;;8.45;0.90;;;14.50;99.90;;;;;;4995852;28;20046;-60
2023/10/14 12:49:42;;;;;;;5.82;0.82;;;14.00;99.90;;;;;;5010269;28;20049;-60
2023/10/14 12:52:12;;;;;;;6.82;1.00;;;13.70;99.90;;;;;;4997401;28;20058;-59
2023/10/14 12:54:49;;;;;;;6.82;1.20;;;13.70;99.90;;;;;;5010093;28;20054;-59
2023/10/14 12:57:18;;;;;;;3.15;0.50;;;14.10;99.90;;;;;;4991468;28;20051;-59
2023/10/14 12:59:46;;;;;;;5.17;0.83;;;14.30;99.90;;;;;;5006006;28;20049;-58
2023/10/14 13:02:17;;;;;;;3.45;0.63;;;14.20;99.90;;;;;;5007220;28;20675;-59
2023/10/14 13:04:45;;;;;;;2.92;0.50;;;14.10;99.90;;;;;;5008104;28;20046;-60
2023/10/14 13:07:13;;;;;;;7.30;1.02;;;14.00;99.90;;;;;;4991659;28;20042;-59
2023/10/14 13:09:41;;;;;;;3.28;0.80;;;14.00;99.90;;;;;;5009846;28;20064;-59
2023/10/14 13:12:15;;;;;;;3.00;0.73;;;14.50;99.90;;;;;;4992493;28;20054;-59
2023/10/14 13:14:45;;;;;;;2.22;0.40;;;14.90;99.90;;;;;;5009139;28;20405;-59
2023/10/14 13:17:13;;;;;;;4.00;0.50;;;14.90;99.90;;;;;;5011003;28;20449;-59
2023/10/14 13:19:41;;;;;;;1.40;0.32;;;14.80;99.90;;;;;;4989126;28;20070;-59
2023/10/14 13:22:14;;;;;;;3.70;0.60;;;14.90;99.90;;;;;;4987501;28;20053;-60
2023/10/14 13:24:49;;;;;;;2.75;0.50;;;15.10;99.90;;;;;;4999311;28;20050;-60
2023/10/14 13:27:18;;;;;;;5.05;0.77;;;15.40;99.90;;;;;;4990151;28;20065;-60
2023/10/14 13:29:46;;;;;;;5.13;0.70;;;15.80;99.90;;;;;;5004987;28;20050;-60
2023/10/14 13:32:24;;;;;;;4.10;0.73;;;16.50;99.90;;;;;;5009138;28;20045;-59
2023/10/14 13:34:53;;;;;;;3.25;0.57;;;17.10;99.90;;;;;;5010005;28;20045;-59
2023/10/14 13:37:21;;;;;;;2.60;0.50;;;17.60;99.90;;;;;;5010566;28;20057;-60
2023/10/14 13:39:50;;;;;;;8.48;1.98;;;17.90;99.90;;;;;;5005953;28;20053;-59
2023/10/14 13:42:17;;;;;;;5.18;1.00;;;17.80;99.90;;;;;;5001183;28;20057;-58